Time;durP1;ratioP1;P1;durP2;ratioP2;P2;SDS_P1;SDS_P2;PMS_P1;PMS_P2;Temp;Humidity;BMP_temperature;BMP_pressure;BME280_temperature;BME280_humidity;BME280_pressure;Samples;Min_cycle;Max_cycle;Signal;HPM_P1;HPM_P2
2022/08/14 00:00:20;;;;;;;5.28;3.30;;;;;;;17.35;80.28;101320.00;5051392;28;20431;-73
2022/08/14 00:02:46;;;;;;;4.03;3.63;;;;;;;17.32;81.07;101320.34;5051574;28;20118;-72
2022/08/14 00:05:15;;;;;;;7.97;3.63;;;;;;;17.28;80.93;101319.81;5051680;28;20032;-72
2022/08/14 00:07:43;;;;;;;5.35;3.20;;;;;;;17.22;80.71;101315.97;5051289;28;20021;-72
2022/08/14 00:10:11;;;;;;;8.13;4.60;;;;;;;17.21;82.86;101310.75;5051151;28;20037;-72
2022/08/14 00:12:52;;;;;;;6.50;3.95;;;;;;;17.18;83.52;101308.41;5050959;28;20033;-72
2022/08/14 00:15:22;;;;;;;5.45;3.58;;;;;;;17.13;82.21;101305.41;5051105;28;20029;-72
2022/08/14 00:17:50;;;;;;;8.85;3.58;;;;;;;17.12;82.84;101304.53;5049831;28;20140;-73
2022/08/14 00:20:17;;;;;;;4.97;3.40;;;;;;;17.10;83.02;101306.56;5051085;28;20037;-74
2022/08/14 00:22:43;;;;;;;7.60;3.47;;;;;;;17.08;83.72;101300.53;5051396;28;20037;-72
2022/08/14 00:25:09;;;;;;;8.38;3.67;;;;;;;17.05;83.96;101293.66;5051217;28;20055;-72
2022/08/14 00:27:34;;;;;;;3.75;3.40;;;;;;;17.03;83.53;101293.00;5051168;28;20048;-72
2022/08/14 00:30:00;;;;;;;6.53;3.72;;;;;;;17.01;84.03;101295.00;5051315;28;20037;-81
2022/08/14 00:32:26;;;;;;;3.90;3.30;;;;;;;16.99;84.55;101288.09;5052317;28;20044;-81
2022/08/14 00:34:51;;;;;;;4.72;3.58;;;;;;;16.95;84.58;101284.94;5053496;28;20115;-80
2022/08/14 00:37:17;;;;;;;3.70;3.33;;;;;;;16.93;85.44;101276.22;5051520;28;20033;-80
2022/08/14 00:39:42;;;;;;;4.43;3.65;;;;;;;16.90;84.89;101282.75;5052793;28;20459;-80
2022/08/14 00:42:07;;;;;;;5.00;4.18;;;;;;;16.89;86.68;101282.94;5053009;28;20112;-80
2022/08/14 00:44:33;;;;;;;4.05;3.58;;;;;;;16.87;85.63;101279.59;5052546;28;20087;-80
2022/08/14 00:47:00;;;;;;;4.03;3.40;;;;;;;16.85;85.75;101278.88;5052644;28;20033;-80
2022/08/14 00:49:27;;;;;;;3.78;3.30;;;;;;;16.82;86.38;101269.28;5056165;28;20029;-80
2022/08/14 00:51:52;;;;;;;3.80;3.30;;;;;;;16.79;86.09;101266.09;5056162;28;20029;-80
2022/08/14 00:54:18;;;;;;;6.40;3.63;;;;;;;16.77;86.96;101271.66;5056240;28;20035;-80
2022/08/14 00:56:43;;;;;;;5.55;4.22;;;;;;;16.74;87.64;101272.81;5056691;28;20040;-80
2022/08/14 00:59:10;;;;;;;4.63;4.13;;;;;;;16.74;89.51;101278.19;5055779;28;20451;-81
2022/08/14 01:01:37;;;;;;;6.28;4.43;;;;;;;16.71;90.33;101264.28;5056487;28;20091;-80
2022/08/14 01:04:03;;;;;;;5.70;4.25;;;;;;;16.70;90.00;101265.28;5055997;28;20383;-82
2022/08/14 01:06:31;;;;;;;4.35;3.90;;;;;;;16.68;90.62;101257.38;5055658;28;20086;-80
2022/08/14 01:08:57;;;;;;;7.63;4.68;;;;;;;16.67;90.29;101252.19;5056082;28;20037;-80
2022/08/14 01:11:23;;;;;;;4.47;3.70;;;;;;;16.65;90.30;101243.47;5054551;28;20029;-80
2022/08/14 01:13:49;;;;;;;4.82;4.43;;;;;;;16.64;90.49;101241.78;5056284;28;20398;-80
2022/08/14 01:16:16;;;;;;;5.30;4.00;;;;;;;16.62;91.28;101241.13;5055450;28;20051;-80
2022/08/14 01:21:40;;;;;;;6.40;3.97;;;;;;;16.57;91.49;101242.44;5055137;28;20398;-81
2022/08/14 01:24:07;;;;;;;5.38;4.20;;;;;;;16.55;92.54;101236.38;5055599;28;20116;-83
2022/08/14 01:26:34;;;;;;;7.05;4.20;;;;;;;16.55;92.17;101238.25;5055702;28;20033;-78
2022/08/14 01:29:00;;;;;;;5.22;4.55;;;;;;;16.53;93.01;101234.91;5055951;28;20458;-78
2022/08/14 01:31:29;;;;;;;5.68;4.15;;;;;;;16.51;92.19;101232.38;5055836;28;20057;-79
2022/08/14 01:33:57;;;;;;;5.72;4.70;;;;;;;16.51;92.19;101237.75;5055638;28;20358;-79
2022/08/14 01:36:25;;;;;;;4.55;3.92;;;;;;;16.51;92.88;101227.00;5054984;28;20541;-79
2022/08/14 01:38:55;;;;;;;4.60;4.20;;;;;;;16.50;92.05;101227.19;5055371;28;20383;-79
2022/08/14 01:41:22;;;;;;;4.13;3.70;;;;;;;16.49;91.64;101220.13;5055244;28;20147;-78
2022/08/14 01:43:50;;;;;;;4.88;4.10;;;;;;;16.45;91.44;101225.00;5055315;28;20049;-78
2022/08/14 01:46:19;;;;;;;6.32;4.05;;;;;;;16.44;91.83;101225.19;5055155;28;20033;-79
2022/08/14 01:48:45;;;;;;;5.30;4.07;;;;;;;16.42;92.30;101222.66;5055196;28;20021;-78
2022/08/14 01:51:13;;;;;;;5.22;3.80;;;;;;;16.39;92.08;101218.47;5053672;28;20068;-79
2022/08/14 01:53:40;;;;;;;4.32;3.60;;;;;;;16.38;91.78;101224.00;5055050;28;20033;-78
2022/08/14 01:56:06;;;;;;;3.97;3.55;;;;;;;16.36;92.08;101220.63;5055084;28;20029;-78
2022/08/14 01:58:32;;;;;;;6.47;4.70;;;;;;;16.35;92.08;101221.66;5054591;28;20536;-79
2022/08/14 02:00:58;;;;;;;6.47;4.85;;;;;;;16.34;92.46;101219.97;5054827;28;20157;-78
2022/08/14 02:03:28;;;;;;;5.45;4.90;;;;;;;16.32;93.17;101213.94;5054393;28;20063;-78
2022/08/14 02:05:57;;;;;;;5.30;4.65;;;;;;;16.30;92.62;101215.94;5054862;28;20021;-78
2022/08/14 02:08:23;;;;;;;5.57;4.88;;;;;;;16.27;93.01;101210.91;5054711;28;20033;-78
2022/08/14 02:11:15;;;;;;;8.05;5.00;;;;;;;16.24;92.46;101211.22;5054641;28;20581;-79
2022/08/14 02:13:39;;;;;;;4.40;4.00;;;;;;;16.21;92.06;101204.34;5054365;28;20047;-78
2022/08/14 02:16:04;;;;;;;5.05;4.47;;;;;;;16.19;92.54;101201.00;5054446;28;20035;-78
2022/08/14 02:18:30;;;;;;;9.45;4.93;;;;;;;16.15;92.64;101205.00;5054801;28;20028;-78
2022/08/14 02:20:57;;;;;;;5.13;4.63;;;;;;;16.13;92.84;101205.19;5054469;28;20028;-79
2022/08/14 02:23:23;;;;;;;5.55;4.60;;;;;;;16.11;93.14;101198.28;5053484;28;20370;-78
2022/08/14 02:25:48;;;;;;;7.55;4.63;;;;;;;16.06;92.81;101192.59;5053080;28;20119;-79
2022/08/14 02:28:13;;;;;;;6.55;5.13;;;;;;;16.03;92.57;101193.75;5054165;28;20029;-79
2022/08/14 02:30:39;;;;;;;5.38;4.78;;;;;;;16.00;93.20;101188.72;5053970;28;20112;-79
2022/08/14 02:33:06;;;;;;;5.32;4.82;;;;;;;15.98;93.37;101185.38;5054439;28;20119;-79
2022/08/14 02:35:32;;;;;;;4.57;4.18;;;;;;;15.96;93.16;101187.38;5054048;28;20064;-79
2022/08/14 02:37:57;;;;;;;7.07;4.88;;;;;;;15.93;92.88;101188.56;5054063;28;20037;-79
2022/08/14 02:40:23;;;;;;;6.75;5.20;;;;;;;15.90;93.11;101185.34;5054205;28;20098;-80
2022/08/14 02:42:49;;;;;;;5.25;4.75;;;;;;;15.85;92.95;101181.34;5053924;28;20371;-80
2022/08/14 02:45:14;;;;;;;5.70;5.20;;;;;;;15.84;93.18;101181.53;5053978;28;20419;-79
2022/08/14 02:47:40;;;;;;;7.30;5.47;;;;;;;15.80;94.19;101178.31;5053601;28;20036;-79
2022/08/14 02:50:06;;;;;;;6.18;5.57;;;;;;;15.78;93.96;101177.66;5053779;28;20029;-80
2022/08/14 02:52:33;;;;;;;7.53;6.07;;;;;;;15.77;94.07;101178.59;5054056;28;20032;-79
2022/08/14 02:54:59;;;;;;;6.70;6.10;;;;;;;15.74;95.04;101178.94;5053835;28;20037;-79
2022/08/14 02:57:27;;;;;;;6.45;5.20;;;;;;;15.71;94.90;101170.41;5053799;28;20021;-80
2022/08/14 02:59:53;;;;;;;5.80;5.30;;;;;;;15.67;95.02;101172.56;5053340;28;20405;-79
2022/08/14 03:02:18;;;;;;;5.30;4.80;;;;;;;15.64;94.55;101162.97;5053722;28;20133;-80
2022/08/14 03:04:43;;;;;;;6.10;5.47;;;;;;;15.61;94.78;101160.63;5053418;28;20398;-80
2022/08/14 03:07:09;;;;;;;7.55;5.28;;;;;;;15.57;94.88;101162.00;5053917;28;20484;-79
2022/08/14 03:09:38;;;;;;;5.80;4.90;;;;;;;15.55;94.57;101168.50;5053307;28;20124;-80
2022/08/14 03:12:04;;;;;;;6.25;5.25;;;;;;;15.52;94.69;101162.47;5053312;28;20107;-80
2022/08/14 03:14:34;;;;;;;5.75;5.15;;;;;;;15.49;94.58;101160.09;5053731;28;20036;-80
2022/08/14 03:16:59;;;;;;;7.13;5.65;;;;;;;15.46;94.59;101159.59;5053448;28;20029;-80
2022/08/14 03:19:25;;;;;;;6.45;5.22;;;;;;;15.42;94.86;101156.41;5053260;28;20032;-80
2022/08/14 03:21:50;;;;;;;5.53;5.03;;;;;;;15.41;95.07;101161.94;5052073;28;20561;-80
2022/08/14 03:24:16;;;;;;;9.70;5.72;;;;;;;15.38;94.98;101151.53;5053579;28;20033;-80
2022/08/14 03:26:44;;;;;;;5.88;5.32;;;;;;;15.35;94.83;101147.34;5053246;28;20029;-81
2022/08/14 03:29:12;;;;;;;6.05;5.45;;;;;;;15.34;95.17;101148.34;5053280;28;20489;-81
2022/08/14 03:31:39;;;;;;;6.97;6.28;;;;;;;15.31;96.11;101148.66;5053215;28;20083;-81
2022/08/14 03:34:07;;;;;;;6.50;5.72;;;;;;;15.29;95.75;101148.00;5053094;28;20056;-81
2022/08/14 03:36:33;;;;;;;9.57;5.55;;;;;;;15.26;95.47;101143.78;5053262;28;20033;-81
2022/08/14 03:38:59;;;;;;;5.93;5.38;;;;;;;15.24;95.60;101145.81;5053289;28;20037;-81
2022/08/14 03:41:26;;;;;;;6.47;5.88;;;;;;;15.20;95.74;101147.13;5053256;28;20053;-81
2022/08/14 03:44:00;;;;;;;6.78;6.10;;;;;;;15.17;96.73;101139.41;5053696;28;20055;-81
2022/08/14 03:46:37;;;;;;;6.47;5.85;;;;;;;15.14;96.48;101140.56;5052946;28;20091;-81
2022/08/14 03:49:04;;;;;;;5.65;5.15;;;;;;;15.11;96.39;101146.25;5053535;28;20025;-81
2022/08/14 03:51:32;;;;;;;6.10;5.50;;;;;;;15.08;96.63;101149.25;5051904;28;20041;-81
2022/08/14 03:53:59;;;;;;;6.43;5.82;;;;;;;15.06;96.81;101145.03;5053515;28;20071;-81
2022/08/14 03:56:26;;;;;;;8.32;7.20;;;;;;;15.03;97.17;101146.19;5053614;28;20036;-81
2022/08/14 03:58:55;;;;;;;7.00;6.40;;;;;;;15.01;97.21;101153.56;5052988;28;20024;-81
2022/08/14 04:01:23;;;;;;;12.90;8.13;;;;;;;15.00;97.40;101143.84;5053409;28;20086;-81
2022/08/14 04:03:50;;;;;;;11.43;8.23;;;;;;;15.01;98.70;101144.72;5053032;28;20029;-81
2022/08/14 04:06:16;;;;;;;9.52;8.18;;;;;;;14.99;99.14;101142.19;5052608;28;20044;-80
2022/08/14 04:08:42;;;;;;;8.18;7.30;;;;;;;14.96;99.00;101146.03;5052982;28;20505;-80
2022/08/14 04:11:09;;;;;;;11.82;8.75;;;;;;;14.95;100.00;101146.19;5052929;28;20045;-81
2022/08/14 04:13:37;;;;;;;10.68;7.10;;;;;;;14.93;99.96;101140.16;5051734;28;20024;-81
2022/08/14 04:16:08;;;;;;;9.68;8.15;;;;;;;14.90;100.00;101135.94;5053250;28;20029;-80
2022/08/14 04:18:38;;;;;;;8.60;7.70;;;;;;;14.90;100.00;101140.44;5053100;28;20116;-81
2022/08/14 04:21:04;;;;;;;14.07;9.68;;;;;;;14.89;100.00;101136.09;5052508;28;20493;-81
2022/08/14 04:23:31;;;;;;;8.82;7.93;;;;;;;14.86;100.00;101139.09;5056060;28;20036;-81
2022/08/14 04:25:56;;;;;;;10.23;8.40;;;;;;;14.84;100.00;101136.59;5057084;28;20075;-81
2022/08/14 04:28:23;;;;;;;9.35;8.25;;;;;;;14.84;100.00;101136.59;5055824;28;20057;-81
2022/08/14 04:30:48;;;;;;;9.13;8.20;;;;;;;14.82;100.00;101133.22;5057353;28;20028;-81
2022/08/14 04:33:15;;;;;;;8.30;7.50;;;;;;;14.81;100.00;101132.38;5055187;28;20029;-80
2022/08/14 04:35:40;;;;;;;8.30;7.40;;;;;;;14.81;100.00;101128.88;5056316;28;20091;-81
2022/08/14 04:43:36;;;;;;;12.10;8.73;;;;;;;14.80;100.00;101125.34;5056108;28;20132;-81
2022/08/14 04:46:07;;;;;;;11.70;8.82;;;;;;;14.84;100.00;101116.97;5056850;28;20471;-81
2022/08/14 04:48:32;;;;;;;10.23;9.23;;;;;;;14.85;100.00;101116.81;5057270;28;20511;-81
2022/08/14 04:50:59;;;;;;;11.05;8.73;;;;;;;14.86;100.00;101115.81;5056501;28;20041;-81
2022/08/14 04:53:28;;;;;;;8.88;7.97;;;;;;;14.88;100.00;101110.31;5056178;28;20143;-80
2022/08/14 04:55:54;;;;;;;9.45;8.00;;;;;;;14.91;100.00;101115.34;5056791;28;20032;-80
2022/08/14 04:58:26;;;;;;;11.35;9.15;;;;;;;14.93;100.00;101103.47;5056226;28;20037;-80
2022/08/14 05:00:54;;;;;;;15.75;10.35;;;;;;;14.98;100.00;101109.19;5056167;28;20454;-80
2022/08/14 05:03:21;;;;;;;12.82;10.45;;;;;;;15.05;100.00;101119.25;5055699;28;20025;-78
2022/08/14 05:05:47;;;;;;;11.23;10.02;;;;;;;15.09;100.00;101110.75;5055849;28;20055;-79
2022/08/14 05:08:13;;;;;;;9.18;8.27;;;;;;;15.14;100.00;101105.72;5055877;28;20033;-79
2022/08/14 05:10:44;;;;;;;12.18;8.75;;;;;;;15.21;100.00;101095.22;5055825;28;20116;-80
2022/08/14 05:13:12;;;;;;;16.33;10.18;;;;;;;15.31;100.00;101103.09;5055865;28;20545;-78
2022/08/14 05:15:39;;;;;;;11.82;10.63;;;;;;;15.37;100.00;101102.44;5054327;28;20083;-82
2022/08/14 05:18:12;;;;;;;11.68;10.48;;;;;;;15.43;100.00;101100.94;5056140;28;20482;-79
2022/08/14 05:20:42;;;;;;;12.32;9.70;;;;;;;15.48;100.00;101102.13;5055329;28;20463;-78
2022/08/14 05:23:08;;;;;;;10.48;9.38;;;;;;;15.55;100.00;101094.25;5055619;28;20048;-79
2022/08/14 05:25:35;;;;;;;13.95;9.48;;;;;;;15.61;100.00;101095.44;5055531;28;20036;-80
2022/08/14 05:28:17;;;;;;;15.35;9.35;;;;;;;15.66;100.00;101093.13;5054072;28;20032;-80
2022/08/14 05:30:45;;;;;;;10.88;9.30;;;;;;;15.71;100.00;101092.59;5054377;28;20029;-80
2022/08/14 05:33:12;;;;;;;9.75;8.75;;;;;;;15.76;100.00;101092.94;5055358;28;20033;-80
2022/08/14 05:35:38;;;;;;;11.80;9.73;;;;;;;15.80;100.00;101097.81;5055263;28;20129;-79
2022/08/14 05:38:08;;;;;;;12.05;9.45;;;;;;;15.82;100.00;101098.53;5055588;28;20068;-80
2022/08/14 05:40:34;;;;;;;10.80;9.20;;;;;;;15.86;100.00;101091.78;5054912;28;20497;-79
2022/08/14 05:43:00;;;;;;;11.07;9.88;;;;;;;15.92;100.00;101090.28;5055016;28;20049;-79
2022/08/14 05:45:25;;;;;;;15.35;9.52;;;;;;;15.98;100.00;101086.91;5055130;28;20063;-79
2022/08/14 05:47:51;;;;;;;10.82;9.73;;;;;;;16.03;100.00;101089.09;5055040;28;20033;-80
2022/08/14 05:50:16;;;;;;;11.10;9.32;;;;;;;16.07;100.00;101090.44;5054755;28;20116;-79
2022/08/14 05:52:42;;;;;;;10.98;9.77;;;;;;;16.14;100.00;101087.94;5054973;28;20033;-79
2022/08/14 05:55:09;;;;;;;12.48;10.48;;;;;;;16.19;100.00;101083.72;5054930;28;20036;-80
2022/08/14 05:57:49;;;;;;;12.43;9.80;;;;;;;16.25;100.00;101092.94;5054097;28;20068;-80
2022/08/14 06:00:16;;;;;;;11.43;10.23;;;;;;;16.32;100.00;101096.63;5054725;28;20079;-79
2022/08/14 06:02:42;;;;;;;11.40;10.20;;;;;;;16.39;100.00;101091.41;5055562;28;20039;-79
2022/08/14 06:05:07;;;;;;;12.05;9.57;;;;;;;16.49;99.38;101094.72;5055014;28;20032;-79
2022/08/14 06:07:36;;;;;;;12.05;10.40;;;;;;;16.58;99.15;101087.50;5054674;28;20068;-79
2022/08/14 06:10:04;;;;;;;13.05;9.80;;;;;;;16.69;98.56;101095.19;5054474;28;20025;-79
2022/08/14 06:12:30;;;;;;;12.75;9.57;;;;;;;16.84;98.02;101102.50;5054720;28;20053;-80
2022/08/14 06:14:55;;;;;;;16.20;9.43;;;;;;;16.98;97.53;101106.38;5053394;28;20037;-79
2022/08/14 06:17:21;;;;;;;16.35;10.35;;;;;;;17.14;96.67;101103.59;5055122;28;20410;-79
2022/08/14 06:19:46;;;;;;;11.10;9.63;;;;;;;17.27;96.14;101100.31;5054742;28;20055;-79
2022/08/14 06:22:12;;;;;;;14.80;9.32;;;;;;;17.40;95.63;101086.31;5054351;28;20040;-79
2022/08/14 06:24:37;;;;;;;12.68;10.00;;;;;;;17.54;95.13;101090.06;5054528;28;20025;-79
2022/08/14 06:27:03;;;;;;;16.15;10.18;;;;;;;17.66;94.36;101085.09;5054248;28;20127;-79
2022/08/14 06:29:29;;;;;;;13.70;9.48;;;;;;;17.80;93.88;101092.41;5054580;28;20472;-79
2022/08/14 06:31:54;;;;;;;12.25;9.32;;;;;;;17.89;93.55;101096.72;5054620;28;20033;-79
2022/08/14 06:34:20;;;;;;;12.25;8.98;;;;;;;18.01;92.98;101093.63;5054063;28;20032;-79
2022/08/14 06:36:45;;;;;;;11.27;9.85;;;;;;;18.11;92.57;101092.34;5054414;28;20028;-79
2022/08/14 06:39:10;;;;;;;14.15;9.63;;;;;;;18.19;92.25;101088.72;5054820;28;20451;-79
2022/08/14 06:41:37;;;;;;;13.95;9.70;;;;;;;18.27;92.09;101082.41;5053708;28;20025;-79
2022/08/14 06:44:02;;;;;;;10.90;9.70;;;;;;;18.37;91.67;101096.47;5054443;28;20053;-79
2022/08/14 06:46:29;;;;;;;14.50;9.10;;;;;;;18.48;90.27;101093.31;5052688;28;20090;-79
2022/08/14 06:48:55;;;;;;;11.73;9.98;;;;;;;18.61;88.93;101078.34;5053844;28;20039;-79
2022/08/14 06:51:20;;;;;;;14.50;10.05;;;;;;;18.74;88.95;101070.44;5053367;28;20120;-80
2022/08/14 06:53:45;;;;;;;10.43;8.73;;;;;;;18.87;89.02;101068.97;5054163;28;20096;-80
2022/08/14 06:56:13;;;;;;;13.32;9.77;;;;;;;18.99;89.02;101056.69;5053219;28;20087;-79
2022/08/14 06:58:38;;;;;;;10.80;9.30;;;;;;;19.10;87.72;101066.97;5054067;28;20113;-78
2022/08/14 07:06:32;;;;;;;13.55;9.48;;;;;;;19.55;84.36;101056.03;5053718;28;20118;-79
2022/08/14 07:09:03;;;;;;;14.27;9.07;;;;;;;19.69;83.73;101043.47;5053284;28;20392;-82
2022/08/14 07:14:50;;;;;;;;;;;;;;;20.04;83.41;101054.41;5054124;28;20128;-81
2022/08/14 07:17:15;;;;;;;12.35;8.90;;;;;;;20.18;81.84;101050.78;5052719;28;19948;-79
2022/08/14 07:19:44;;;;;;;9.70;8.63;;;;;;;20.34;81.28;101054.19;5053437;28;20098;-80
2022/08/14 07:22:10;;;;;;;10.82;8.35;;;;;;;20.51;81.32;101055.53;5053513;28;20090;-79
2022/08/14 07:24:35;;;;;;;8.95;7.82;;;;;;;20.70;80.30;101055.84;5053140;28;20052;-78
2022/08/14 07:27:00;;;;;;;9.80;8.55;;;;;;;20.86;77.74;101062.81;5053090;28;20037;-79
2022/08/14 07:29:26;;;;;;;11.27;8.27;;;;;;;21.04;76.19;101056.84;5053581;28;20040;-78
2022/08/14 07:31:51;;;;;;;8.35;7.47;;;;;;;21.24;76.85;101063.16;5053351;28;20051;-78
2022/08/14 07:34:17;;;;;;;9.88;7.40;;;;;;;21.43;75.44;101063.38;5053518;28;20037;-80
2022/08/14 07:36:42;;;;;;;11.55;7.70;;;;;;;21.61;74.18;101062.81;5053168;28;20056;-79
2022/08/14 07:39:08;;;;;;;8.80;7.05;;;;;;;21.82;72.72;101061.78;5053059;28;20489;-79
2022/08/14 07:41:33;;;;;;;9.38;7.88;;;;;;;22.04;72.72;101062.41;5053417;28;20370;-79
2022/08/14 07:43:58;;;;;;;11.95;9.05;;;;;;;22.23;72.03;101052.56;5053161;28;20411;-78
2022/08/14 07:46:24;;;;;;;10.82;6.47;;;;;;;22.41;69.17;101056.50;5053048;28;20100;-78
2022/08/14 07:48:49;;;;;;;15.57;6.35;;;;;;;22.59;66.12;101059.41;5051585;28;20025;-77
2022/08/14 07:51:15;;;;;;;6.82;6.13;;;;;;;22.77;62.18;101058.69;5052756;28;20025;-77
2022/08/14 07:53:40;;;;;;;10.55;6.30;;;;;;;22.94;60.47;101048.19;5052746;28;20029;-81
2022/08/14 07:56:06;;;;;;;10.73;6.20;;;;;;;23.12;59.52;101043.97;5052720;28;20035;-77
2022/08/14 07:58:32;;;;;;;12.25;5.70;;;;;;;23.28;59.84;101040.72;5052754;28;20425;-79
2022/08/14 08:00:58;;;;;;;9.93;6.20;;;;;;;23.48;59.51;101037.88;5053190;28;20429;-79
2022/08/14 08:03:26;;;;;;;10.85;6.05;;;;;;;23.74;57.88;101030.59;5052969;28;20382;-76
2022/08/14 08:05:51;;;;;;;10.98;6.03;;;;;;;24.00;58.02;101039.56;5051114;28;20033;-76
2022/08/14 08:08:19;;;;;;;6.55;5.85;;;;;;;24.24;54.32;101035.16;5052427;28;20040;-72
2022/08/14 08:10:45;;;;;;;6.15;5.47;;;;;;;24.58;55.66;101031.03;5052561;28;20036;-76
2022/08/14 08:13:14;;;;;;;11.93;5.65;;;;;;;24.84;53.14;101034.47;5051472;28;20040;-75
2022/08/14 08:15:43;;;;;;;9.73;6.10;;;;;;;25.08;52.33;101029.97;5053238;28;20385;-74
2022/08/14 08:18:12;;;;;;;13.90;6.13;;;;;;;25.26;50.02;101029.09;5052052;28;20045;-76
2022/08/14 08:20:41;;;;;;;12.38;5.90;;;;;;;25.70;49.38;101026.09;5052323;28;20433;-77
2022/08/14 08:23:08;;;;;;;11.60;5.90;;;;;;;25.91;48.42;101023.88;5050632;28;20036;-78
2022/08/14 08:25:36;;;;;;;10.35;5.93;;;;;;;26.27;48.52;101020.06;5052254;28;20037;-77
2022/08/14 08:28:08;;;;;;;8.93;5.78;;;;;;;26.63;47.99;101020.00;5052387;28;20087;-79
2022/08/14 08:30:36;;;;;;;11.68;5.70;;;;;;;27.20;46.92;101017.31;5052638;28;20083;-80
2022/08/14 08:33:03;;;;;;;7.50;5.90;;;;;;;27.77;44.79;101015.53;5053381;28;20036;-80
2022/08/14 08:35:34;;;;;;;8.23;5.90;;;;;;;28.17;43.68;101013.66;5053108;28;20025;-79
2022/08/14 08:38:06;;;;;;;11.23;6.07;;;;;;;28.55;44.21;101014.69;5052892;28;20029;-79
2022/08/14 08:40:34;;;;;;;8.02;6.40;;;;;;;28.88;41.62;101013.72;5052229;28;20427;-77
2022/08/14 08:43:19;;;;;;;8.40;5.50;;;;;;;29.19;42.22;101012.13;5052154;28;20053;-75
2022/08/14 08:45:53;;;;;;;10.43;5.45;;;;;;;29.48;40.79;101005.53;5051419;28;20029;-74
2022/08/14 08:48:18;;;;;;;7.32;5.30;;;;;;;29.50;41.87;101008.84;5051169;28;20403;-75
2022/08/14 08:50:44;;;;;;;7.28;5.32;;;;;;;29.65;40.20;101000.75;5051882;28;20033;-75
2022/08/14 08:53:09;;;;;;;8.65;5.05;;;;;;;29.75;39.62;100999.16;5052358;28;20576;-75
2022/08/14 08:55:43;;;;;;;8.45;4.93;;;;;;;29.86;39.20;100998.19;5052100;28;20025;-76
2022/08/14 08:58:18;;;;;;;10.32;4.85;;;;;;;29.90;38.55;100999.28;5052190;28;20120;-75
2022/08/14 09:00:48;;;;;;;14.02;5.03;;;;;;;30.07;39.41;101002.69;5052275;28;20040;-76
2022/08/14 09:03:17;;;;;;;9.77;4.90;;;;;;;29.85;39.27;101002.81;5051993;28;20099;-81
2022/08/14 09:06:02;;;;;;;6.03;5.20;;;;;;;30.14;38.09;100996.97;5053045;28;20037;-80
2022/08/14 09:08:33;;;;;;;11.73;5.43;;;;;;;30.53;37.50;100990.28;5054389;28;20029;-80
2022/08/14 09:11:02;;;;;;;6.85;4.85;;;;;;;31.40;36.78;100982.19;5055976;28;20107;-79
2022/08/14 09:13:28;;;;;;;6.18;5.25;;;;;;;32.36;34.15;100986.13;5056708;28;20082;-79
2022/08/14 09:15:55;;;;;;;6.18;5.00;;;;;;;33.28;31.97;100990.31;5056404;28;20424;-77
2022/08/14 09:18:22;;;;;;;6.90;4.53;;;;;;;34.25;30.26;100977.44;5054424;28;20051;-77
2022/08/14 09:20:51;;;;;;;5.25;4.30;;;;;;;35.32;28.75;100979.78;5056512;28;20037;-81
2022/08/14 09:23:16;;;;;;;7.20;4.50;;;;;;;36.44;26.82;100972.38;5056553;28;20087;-80
2022/08/14 09:25:45;;;;;;;6.40;4.07;;;;;;;36.57;27.32;100967.94;5057085;28;20041;-78
2022/08/14 09:28:12;;;;;;;7.45;4.22;;;;;;;37.27;26.24;100971.31;5057241;28;20108;-81
2022/08/14 09:30:51;;;;;;;11.18;4.70;;;;;;;37.38;26.31;100972.66;5056416;28;20048;-76
2022/08/14 09:33:22;;;;;;;9.05;3.95;;;;;;;37.61;24.72;100972.59;5056615;28;20051;-77
2022/08/14 09:36:19;;;;;;;8.75;3.88;;;;;;;37.97;26.88;100968.88;5055634;28;20033;-76
2022/08/14 09:39:03;;;;;;;5.55;3.90;;;;;;;38.60;23.77;100961.16;5056643;28;20025;-75
2022/08/14 09:42:19;;;;;;;7.38;3.55;;;;;;;38.74;24.56;100964.63;5056407;28;20358;-76
2022/08/14 09:45:27;;;;;;;7.93;3.47;;;;;;;39.10;22.26;100946.78;5054545;28;20503;-80
2022/08/14 09:47:55;;;;;;;4.38;3.20;;;;;;;38.96;23.19;100944.13;4974551;28;20034;-75
2022/08/14 09:50:31;;;;;;;5.55;3.53;;;;;;;38.92;22.14;100951.53;5043844;28;20124;-78
2022/08/14 09:52:58;;;;;;;8.05;3.58;;;;;;;39.13;21.68;100942.50;5055685;28;20062;-75
2022/08/14 09:55:26;;;;;;;3.55;3.25;;;;;;;38.87;23.18;100936.97;5055802;28;20040;-76
2022/08/14 09:57:52;;;;;;;5.20;3.47;;;;;;;39.06;22.63;100939.41;5054412;28;20348;-76
2022/08/14 10:00:21;;;;;;;6.63;3.60;;;;;;;39.15;22.33;100927.13;5055972;28;20033;-74
2022/08/14 10:03:01;;;;;;;6.18;3.15;;;;;;;39.47;24.70;100935.19;5055661;28;20059;-75
2022/08/14 10:05:29;;;;;;;6.88;2.95;;;;;;;39.70;21.60;100926.59;5055445;28;20025;-75
2022/08/14 10:07:56;;;;;;;5.38;3.38;;;;;;;39.74;20.81;100917.25;5055337;28;20093;-71
2022/08/14 10:10:34;;;;;;;3.55;3.20;;;;;;;39.62;21.71;100926.34;5055056;28;20037;-75
2022/08/14 10:13:02;;;;;;;5.15;3.55;;;;;;;39.20;21.49;100923.34;5055874;28;20386;-73
2022/08/14 10:15:31;;;;;;;6.80;3.30;;;;;;;39.10;21.67;100907.84;5054964;28;20032;-75
2022/08/14 10:18:06;;;;;;;4.68;3.28;;;;;;;39.45;22.95;100910.47;5054990;28;20021;-75
2022/08/14 10:20:34;;;;;;;5.65;3.22;;;;;;;39.75;22.73;100904.16;5053166;28;20108;-80
2022/08/14 10:23:17;;;;;;;9.07;3.33;;;;;;;39.88;23.09;100910.59;5052908;28;20025;-77
2022/08/14 10:25:49;;;;;;;7.72;3.20;;;;;;;40.19;22.85;100904.69;5054348;28;20032;-78
2022/08/14 10:28:16;;;;;;;4.78;3.33;;;;;;;40.05;21.59;100910.53;5053167;28;20029;-78
2022/08/14 10:30:46;;;;;;;4.65;3.55;;;;;;;39.74;22.10;100913.66;5053010;28;20033;-78
2022/08/14 10:33:23;;;;;;;4.80;3.42;;;;;;;39.21;23.22;100899.13;5053561;28;20529;-77
2022/08/14 10:35:49;;;;;;;7.70;3.83;;;;;;;39.02;23.53;100897.50;5054135;28;20116;-78
2022/08/14 10:38:27;;;;;;;11.07;3.55;;;;;;;39.14;23.79;100891.28;5054032;28;20475;-76
2022/08/14 10:40:53;;;;;;;5.72;3.90;;;;;;;39.59;23.68;100896.34;5054321;28;20025;-77
2022/08/14 10:43:26;;;;;;;5.13;3.70;;;;;;;39.24;22.91;100888.16;5054086;28;20628;-78
2022/08/14 10:45:56;;;;;;;8.68;3.78;;;;;;;39.31;22.90;100888.44;5054146;28;20106;-75
2022/08/14 10:48:23;;;;;;;7.38;3.70;;;;;;;39.14;23.81;100880.97;5053549;28;20033;-79
2022/08/14 10:50:50;;;;;;;7.05;3.72;;;;;;;39.65;24.28;100883.06;5053942;28;20398;-75
2022/08/14 10:53:28;;;;;;;8.50;3.25;;;;;;;39.63;22.97;100880.63;5053697;28;20090;-78
2022/08/14 10:55:58;;;;;;;14.45;3.70;;;;;;;39.11;22.62;100880.84;5053645;28;20036;-79
2022/08/14 10:58:30;;;;;;;4.35;3.20;;;;;;;39.71;22.89;100881.72;5053630;28;20029;-80
2022/08/14 11:00:57;;;;;;;5.90;3.40;;;;;;;39.78;22.78;100884.78;5054529;28;20033;-80
2022/08/14 11:03:24;;;;;;;4.03;3.40;;;;;;;39.11;22.96;100878.84;5054172;28;20037;-77
2022/08/14 11:05:50;;;;;;;5.22;3.25;;;;;;;39.85;23.74;100873.13;5053766;28;20057;-76
2022/08/14 11:08:28;;;;;;;5.13;3.20;;;;;;;40.12;22.09;100879.38;5051983;28;20116;-75
2022/08/14 11:10:56;;;;;;;11.23;3.25;;;;;;;40.27;21.27;100875.16;5053750;28;20138;-75
2022/08/14 11:13:27;;;;;;;7.78;3.40;;;;;;;40.30;21.96;100868.91;5053100;28;20378;-75
2022/08/14 11:15:55;;;;;;;6.78;3.10;;;;;;;40.07;21.60;100860.06;5053485;28;20051;-78
2022/08/14 11:18:21;;;;;;;5.88;3.50;;;;;;;40.21;21.47;100871.75;5053280;28;20454;-77
2022/08/14 11:20:53;;;;;;;3.55;3.25;;;;;;;40.33;20.79;100859.84;5052391;28;20040;-78
2022/08/14 11:23:25;;;;;;;5.93;2.90;;;;;;;40.53;20.82;100864.63;5054078;28;20068;-78
2022/08/14 11:25:51;;;;;;;7.55;2.90;;;;;;;40.85;20.26;100855.78;5053377;28;20029;-76
2022/08/14 11:28:21;;;;;;;4.75;2.90;;;;;;;40.46;20.04;100866.31;5053151;28;20076;-76
2022/08/14 11:30:48;;;;;;;4.82;2.97;;;;;;;40.38;21.29;100865.22;5051821;28;20025;-78
2022/08/14 11:33:14;;;;;;;5.85;3.28;;;;;;;40.26;21.22;100862.38;5053019;28;20070;-76
2022/08/14 11:35:41;;;;;;;6.25;2.90;;;;;;;39.85;19.75;100864.78;5053424;28;20473;-76
2022/08/14 11:38:07;;;;;;;3.28;2.80;;;;;;;39.63;20.81;100858.34;5053053;28;20037;-76
2022/08/14 11:40:36;;;;;;;4.15;2.83;;;;;;;40.09;21.34;100864.16;5052949;28;20033;-76
2022/08/14 11:43:04;;;;;;;5.65;2.92;;;;;;;40.46;20.73;100864.34;5053129;28;20056;-77